Time;durP1;ratioP1;P1;durP2;ratioP2;P2;SDS_P1;SDS_P2;PMS_P1;PMS_P2;Temp;Humidity;BMP_temperature;BMP_pressure;BME280_temperature;BME280_humidity;BME280_pressure;Samples;Min_cycle;Max_cycle;Signal;HPM_P1;HPM_P2
2023/06/05 00:00:14;;;;;;;;;;;;;;;23.37;60.74;98710.53;2086181;28;19974;-53
2023/06/05 00:01:17;;;;;;;;;;;;;;;23.35;60.88;98709.09;2083227;28;20348;-51
2023/06/05 00:02:17;;;;;;;;;;;;;;;23.34;60.59;98710.97;2082556;28;20639;-57
2023/06/05 00:03:19;;;;;;;;;;;;;;;23.35;60.67;98707.22;2087023;28;19963;-56
2023/06/05 00:04:20;;;;;;;;;;;;;;;23.35;60.78;98709.09;2083432;28;19921;-52
2023/06/05 00:05:25;;;;;;;;;;;;;;;23.35;60.86;98700.97;2086193;28;20474;-52
2023/06/05 00:06:26;;;;;;;;;;;;;;;23.34;60.91;98705.56;2085529;28;19924;-54
2023/06/05 00:07:27;;;;;;;;;;;;;;;23.35;60.45;98707.22;2087487;28;19921;-52
2023/06/05 00:08:28;;;;;;;;;;;;;;;23.35;60.73;98704.50;2086545;28;19932;-56
2023/06/05 00:09:29;;;;;;;;;;;;;;;23.34;60.71;98704.72;2088808;28;20387;-54
2023/06/05 00:10:31;;;;;;;;;;;;;;;23.34;60.75;98704.72;2086207;28;19924;-51
2023/06/05 00:11:33;;;;;;;;;;;;;;;23.35;60.81;98703.69;2087732;28;19974;-52
2023/06/05 00:12:34;;;;;;;;;;;;;;;23.34;60.67;98705.56;2079907;28;20715;-53
2023/06/05 00:13:35;;;;;;;;;;;;;;;23.34;60.79;98707.44;2086673;28;19931;-54
2023/06/05 00:14:36;;;;;;;;;;;;;;;23.35;60.94;98709.94;2082161;28;19925;-50
2023/06/05 00:15:38;;;;;;;;;;;;;;;23.32;60.92;98702.28;2090164;28;19924;-53
2023/06/05 00:16:38;;;;;;;;;;;;;;;23.33;60.92;98708.50;2085273;28;19977;-53
2023/06/05 00:17:40;;;;;;;;;;;;;;;23.33;60.99;98708.50;2087344;28;20459;-54
2023/06/05 00:18:40;;;;;;;;;;;;;;;23.34;60.76;98705.56;2087823;28;19922;-54
2023/06/05 00:19:42;;;;;;;;;;;;;;;23.34;60.80;98707.44;2087997;28;19924;-55
2023/06/05 00:20:42;;;;;;;;;;;;;;;23.34;60.90;98704.72;2085695;28;19978;-53
2023/06/05 00:21:44;;;;;;;;;;;;;;;23.32;60.87;98699.56;2085712;28;19951;-55
2023/06/05 00:22:44;;;;;;;;;;;;;;;23.33;60.85;98695.78;2085903;28;19954;-55
2023/06/05 00:23:46;;;;;;;;;;;;;;;23.31;60.96;98700.59;2087088;28;20373;-55
2023/06/05 00:24:46;;;;;;;;;;;;;;;23.32;60.91;98696.88;2086278;28;20012;-53
2023/06/05 00:25:49;;;;;;;;;;;;;;;23.32;60.79;98698.75;2083305;28;19935;-50
2023/06/05 00:26:50;;;;;;;;;;;;;;;23.33;60.91;98698.50;2084753;28;20579;-53
2023/06/05 00:27:51;;;;;;;;;;;;;;;23.33;61.07;98697.69;2088297;28;19927;-54
2023/06/05 00:28:52;;;;;;;;;;;;;;;23.33;60.96;98693.09;2085950;28;19974;-54
2023/06/05 00:29:53;;;;;;;;;;;;;;;23.32;61.11;98690.63;2083443;28;19924;-54
2023/06/05 00:30:53;;;;;;;;;;;;;;;23.33;60.99;98693.09;2085906;28;20003;-54
2023/06/05 00:31:55;;;;;;;;;;;;;;;23.31;61.11;98695.19;2083042;28;20310;-53
2023/06/05 00:32:55;;;;;;;;;;;;;;;23.33;60.86;98694.97;2084978;28;20361;-54
2023/06/05 00:33:57;;;;;;;;;;;;;;;23.32;60.84;98691.44;2081628;28;19931;-54
2023/06/05 00:34:57;;;;;;;;;;;;;;;23.33;60.83;98701.19;2086356;28;19993;-54
2023/06/05 00:35:59;;;;;;;;;;;;;;;23.32;60.92;98688.75;2086506;28;19925;-54
2023/06/05 00:37:00;;;;;;;;;;;;;;;23.32;60.88;98694.16;2084053;28;19959;-51
2023/06/05 00:38:01;;;;;;;;;;;;;;;23.32;61.05;98696.03;2087482;28;20429;-54
2023/06/05 00:39:02;;;;;;;;;;;;;;;23.31;60.93;98694.38;2086080;28;19920;-55
2023/06/05 00:40:03;;;;;;;;;;;;;;;23.31;61.04;98699.78;2088971;28;19994;-53
2023/06/05 00:41:05;;;;;;;;;;;;;;;23.31;60.92;98694.38;2087372;28;20029;-54
2023/06/05 00:42:07;;;;;;;;;;;;;;;23.31;61.01;98697.06;2085254;28;22409;-55
2023/06/05 00:43:07;;;;;;;;;;;;;;;23.31;60.94;98694.38;2078464;28;19925;-53
2023/06/05 00:44:09;;;;;;;;;;;;;;;23.31;60.90;98691.66;2087531;28;19928;-54
2023/06/05 00:45:10;;;;;;;;;;;;;;;23.31;61.03;98694.38;2084792;28;20369;-52
2023/06/05 00:46:12;;;;;;;;;;;;;;;23.31;60.93;98697.91;2085535;28;19932;-54
2023/06/05 00:47:12;;;;;;;;;;;;;;;23.30;60.97;98692.75;2081354;28;20024;-55
2023/06/05 00:48:14;;;;;;;;;;;;;;;23.31;61.02;98699.78;2084450;28;20425;-52
2023/06/05 00:49:15;;;;;;;;;;;;;;;23.30;61.04;98696.25;2085649;28;20648;-53
2023/06/05 00:50:17;;;;;;;;;;;;;;;23.30;60.98;98698.97;2088881;28;19920;-51
2023/06/05 00:51:18;;;;;;;;;;;;;;;23.32;60.96;98699.56;2089893;28;19927;-54
2023/06/05 00:52:18;;;;;;;;;;;;;;;23.31;60.95;98697.91;2084185;28;20631;-52
2023/06/05 00:53:20;;;;;;;;;;;;;;;23.31;61.06;98700.59;2084558;28;19971;-52
2023/06/05 00:54:22;;;;;;;;;;;;;;;23.31;60.89;98689.78;2083702;28;19966;-55
2023/06/05 00:55:23;;;;;;;;;;;;;;;23.32;60.86;98696.03;2087526;28;19925;-52
2023/06/05 00:56:25;;;;;;;;;;;;;;;23.30;61.06;98698.97;2084858;28;19977;-53
2023/06/05 00:57:28;;;;;;;;;;;;;;;23.31;61.03;98694.38;2087770;28;19951;-51
2023/06/05 00:58:29;;;;;;;;;;;;;;;23.31;61.09;98694.38;2087183;28;19930;-55
2023/06/05 00:59:34;;;;;;;;;;;;;;;23.30;61.18;98690.84;2086407;28;20712;-53
2023/06/05 01:00:36;;;;;;;;;;;;;;;23.30;61.02;98695.44;2086791;28;20023;-50
2023/06/05 01:01:38;;;;;;;;;;;;;;;23.30;60.89;98693.56;2087645;28;19925;-51
2023/06/05 01:02:39;;;;;;;;;;;;;;;23.29;61.05;98686.50;2080219;28;19931;-55
2023/06/05 01:03:41;;;;;;;;;;;;;;;23.29;60.99;98688.34;2083678;28;21383;-53
2023/06/05 01:04:43;;;;;;;;;;;;;;;23.30;60.97;98682.72;2083880;28;19975;-53
2023/06/05 01:05:47;;;;;;;;;;;;;;;23.29;61.12;98686.50;2086941;28;19970;-54
2023/06/05 01:06:48;;;;;;;;;;;;;;;23.28;61.01;98682.13;2087620;28;19935;-54
2023/06/05 01:07:50;;;;;;;;;;;;;;;23.30;60.96;98681.91;2089079;28;20006;-51
2023/06/05 01:08:50;;;;;;;;;;;;;;;23.31;61.13;98680.84;2087746;28;19978;-53
2023/06/05 01:09:51;;;;;;;;;;;;;;;23.29;60.97;98682.94;2087084;28;20617;-53
2023/06/05 01:10:55;;;;;;;;;;;;;;;23.28;60.99;98684.84;2087369;28;20007;-55
2023/06/05 01:11:59;;;;;;;;;;;;;;;23.29;60.98;98685.66;2087553;28;19989;-53
2023/06/05 01:13:04;;;;;;;;;;;;;;;23.29;61.03;98677.53;2083003;28;19972;-53
2023/06/05 01:14:09;;;;;;;;;;;;;;;23.29;60.92;98675.69;2086677;28;19935;-53
2023/06/05 01:15:11;;;;;;;;;;;;;;;23.28;61.27;98676.72;2089924;28;20291;-54
2023/06/05 01:16:14;;;;;;;;;;;;;;;23.27;60.93;98675.06;2087609;28;19959;-54
2023/06/05 01:17:18;;;;;;;;;;;;;;;23.28;60.99;98679.44;2087225;28;20017;-53
2023/06/05 01:18:22;;;;;;;;;;;;;;;23.29;60.97;98672.97;2082672;28;19925;-54
2023/06/05 01:19:24;;;;;;;;;;;;;;;23.29;61.03;98675.69;2084028;28;19924;-54
2023/06/05 01:20:32;;;;;;;;;;;;;;;23.27;61.28;98669.66;2082421;28;20477;-53
2023/06/05 01:21:33;;;;;;;;;;;;;;;23.28;61.16;98673.19;2083500;28;19929;-53
2023/06/05 01:22:35;;;;;;;;;;;;;;;23.28;61.06;98670.50;2082111;28;20087;-53
2023/06/05 01:23:37;;;;;;;;;;;;;;;23.28;61.14;98676.72;2079024;28;19944;-54
2023/06/05 01:24:40;;;;;;;;;;;;;;;23.28;61.25;98667.78;2086258;28;20003;-53
2023/06/05 01:25:41;;;;;;;;;;;;;;;23.27;61.22;98672.38;2079429;28;20015;-54
2023/06/05 01:26:52;;;;;;;;;;;;;;;23.27;61.14;98666.16;2086549;28;20331;-50
2023/06/05 01:27:55;;;;;;;;;;;;;;;23.27;61.15;98672.38;2086177;28;20016;-55
2023/06/05 01:28:58;;;;;;;;;;;;;;;23.26;61.22;98670.69;2084861;28;19927;-54
2023/06/05 01:30:02;;;;;;;;;;;;;;;23.27;61.25;98669.66;2085538;28;19955;-54
2023/06/05 01:31:06;;;;;;;;;;;;;;;23.28;60.95;98667.78;2085582;28;19921;-54
2023/06/05 01:32:12;;;;;;;;;;;;;;;23.27;61.24;98666.97;2085249;28;19966;-54
2023/06/05 01:33:17;;;;;;;;;;;;;;;23.27;61.29;98669.66;2082846;28;20394;-54
2023/06/05 01:34:19;;;;;;;;;;;;;;;23.26;61.22;98665.28;2088342;28;19928;-54
2023/06/05 01:35:27;;;;;;;;;;;;;;;23.26;61.22;98664.47;2089690;28;19974;-50
2023/06/05 01:36:28;;;;;;;;;;;;;;;23.27;61.33;98672.38;2086519;28;19920;-55
2023/06/05 01:37:36;;;;;;;;;;;;;;;23.26;61.16;98670.69;2088912;28;19924;-55
2023/06/05 01:38:38;;;;;;;;;;;;;;;23.27;61.28;98666.97;2081526;28;19925;-52
2023/06/05 01:39:40;;;;;;;;;;;;;;;23.27;61.14;98668.84;2086178;28;19924;-55
2023/06/05 01:40:41;;;;;;;;;;;;;;;23.26;61.21;98665.28;2085797;28;19966;-50
2023/06/05 01:41:42;;;;;;;;;;;;;;;23.27;61.21;98660.72;2080273;28;20337;-54
2023/06/05 01:42:43;;;;;;;;;;;;;;;23.27;61.18;98658.03;2087244;28;19928;-55
2023/06/05 01:43:46;;;;;;;;;;;;;;;23.26;61.26;98659.06;2081848;28;20407;-55
2023/06/05 01:44:47;;;;;;;;;;;;;;;23.26;61.23;98662.59;2082610;28;20042;-53
2023/06/05 01:45:50;;;;;;;;;;;;;;;23.26;61.18;98657.19;2081972;28;19928;-54
2023/06/05 01:46:51;;;;;;;;;;;;;;;23.25;61.22;98658.25;2080956;28;19928;-51
2023/06/05 01:47:53;;;;;;;;;;;;;;;23.25;61.06;98650.13;2079219;28;20043;-53
2023/06/05 01:48:54;;;;;;;;;;;;;;;23.26;61.24;98659.88;2088734;28;19924;-52
2023/06/05 01:49:55;;;;;;;;;;;;;;;23.27;61.33;98658.84;2088167;28;20447;-53
2023/06/05 01:50:56;;;;;;;;;;;;;;;23.27;61.21;98653.44;2084726;28;19981;-54
2023/06/05 01:51:58;;;;;;;;;;;;;;;23.26;61.13;98654.47;2084753;28;20002;-54
2023/06/05 01:53:02;;;;;;;;;;;;;;;23.25;61.21;98650.13;2084004;28;19929;-54
2023/06/05 01:54:05;;;;;;;;;;;;;;;23.24;61.40;98651.19;2086164;28;20013;-54
2023/06/05 01:55:06;;;;;;;;;;;;;;;23.27;61.22;98652.63;2083727;28;19919;-52
2023/06/05 01:56:08;;;;;;;;;;;;;;;23.25;61.16;98652.84;2086755;28;19977;-56
2023/06/05 01:57:09;;;;;;;;;;;;;;;23.25;61.18;98657.44;2086355;28;19967;-54
2023/06/05 01:58:10;;;;;;;;;;;;;;;23.26;61.31;98656.34;2084757;28;19928;-52
2023/06/05 01:59:11;;;;;;;;;;;;;;;23.26;61.22;98649.06;2083661;28;20040;-54
2023/06/05 02:00:15;;;;;;;;;;;;;;;23.25;61.46;98654.72;2081009;28;20506;-54
2023/06/05 02:01:16;;;;;;;;;;;;;;;23.26;61.14;98654.47;2082506;28;19920;-55
2023/06/05 02:02:18;;;;;;;;;;;;;;;23.24;61.30;98650.38;2082927;28;19920;-55
2023/06/05 02:03:19;;;;;;;;;;;;;;;23.25;61.30;98647.41;2086143;28;19928;-55
2023/06/05 02:04:21;;;;;;;;;;;;;;;23.25;61.33;98649.31;2084112;28;20003;-55
2023/06/05 02:05:22;;;;;;;;;;;;;;;23.26;61.25;98642.81;2083789;28;19928;-56
2023/06/05 02:06:24;;;;;;;;;;;;;;;23.25;61.19;98647.41;2084442;28;19956;-54
2023/06/05 02:07:25;;;;;;;;;;;;;;;23.25;61.24;98652.84;2084370;28;22637;-56
2023/06/05 02:08:28;;;;;;;;;;;;;;;23.24;61.51;98647.66;2085308;28;19920;-53
2023/06/05 02:09:32;;;;;;;;;;;;;;;23.23;61.26;98644.13;2084067;28;19959;-55
2023/06/05 02:10:33;;;;;;;;;;;;;;;23.23;61.44;98646.81;2084493;28;19936;-56
2023/06/05 02:11:36;;;;;;;;;;;;;;;23.25;61.26;98647.41;2084708;28;19984;-56
2023/06/05 02:12:37;;;;;;;;;;;;;;;23.24;61.36;98651.19;2083887;28;19928;-56
2023/06/05 02:13:38;;;;;;;;;;;;;;;23.24;61.42;98644.97;2090688;28;19970;-56
2023/06/05 02:14:44;;;;;;;;;;;;;;;23.24;61.34;98644.97;2083802;28;20564;-56
2023/06/05 02:15:44;;;;;;;;;;;;;;;23.24;61.27;98643.06;2084900;28;19924;-54
2023/06/05 02:16:48;;;;;;;;;;;;;;;23.24;61.19;98650.38;2080162;28;19963;-56
2023/06/05 02:17:50;;;;;;;;;;;;;;;23.23;61.32;98638.69;2085620;28;21958;-54
2023/06/05 02:18:51;;;;;;;;;;;;;;;23.24;61.35;98647.66;2084285;28;20300;-54
2023/06/05 02:19:52;;;;;;;;;;;;;;;23.23;61.34;98644.13;2085702;28;19931;-54
2023/06/05 02:20:55;;;;;;;;;;;;;;;23.23;61.24;98640.59;2084146;28;19925;-55
2023/06/05 02:21:55;;;;;;;;;;;;;;;23.23;61.35;98643.28;2086162;28;20138;-54
2023/06/05 02:22:57;;;;;;;;;;;;;;;23.23;61.28;98636.00;2086223;28;20042;-54
2023/06/05 02:23:58;;;;;;;;;;;;;;;23.22;61.26;98637.06;2090891;28;20482;-54
2023/06/05 02:25:01;;;;;;;;;;;;;;;23.23;61.20;98644.13;2072357;28;19950;-55
2023/06/05 02:26:01;;;;;;;;;;;;;;;23.22;61.29;98641.66;2083456;28;19921;-55
2023/06/05 02:27:03;;;;;;;;;;;;;;;23.21;61.40;98646.25;2090679;28;20027;-54
2023/06/05 02:28:03;;;;;;;;;;;;;;;23.22;61.30;98638.97;2087200;28;20011;-55
2023/06/05 02:29:05;;;;;;;;;;;;;;;23.21;61.46;98635.44;2087734;28;19935;-54
2023/06/05 02:30:06;;;;;;;;;;;;;;;23.22;61.44;98647.06;2083862;28;20523;-53
2023/06/05 02:31:08;;;;;;;;;;;;;;;23.22;61.42;98637.06;2082017;28;20053;-53
2023/06/05 02:32:08;;;;;;;;;;;;;;;23.22;61.49;98639.78;2086766;28;20574;-55
2023/06/05 02:33:10;;;;;;;;;;;;;;;23.22;61.33;98637.06;2086416;28;19925;-53
2023/06/05 02:34:11;;;;;;;;;;;;;;;23.23;61.18;98644.13;2082701;28;20039;-54
2023/06/05 02:35:13;;;;;;;;;;;;;;;23.22;61.31;98641.66;2083913;28;19920;-55
2023/06/05 02:36:15;;;;;;;;;;;;;;;23.22;61.29;98642.47;2083040;28;19920;-52
2023/06/05 02:37:17;;;;;;;;;;;;;;;23.21;61.28;98643.53;2083435;28;19920;-55
2023/06/05 02:38:17;;;;;;;;;;;;;;;23.21;61.28;98643.53;2084674;28;19921;-55
2023/06/05 02:39:19;;;;;;;;;;;;;;;23.22;61.29;98642.47;2082804;28;19920;-55
2023/06/05 02:40:21;;;;;;;;;;;;;;;23.20;61.32;98641.88;2085687;28;19935;-54
2023/06/05 02:41:22;;;;;;;;;;;;;;;23.20;61.21;98641.88;2084901;28;19920;-53
2023/06/05 02:42:23;;;;;;;;;;;;;;;23.21;61.28;98646.25;2085966;28;20001;-57
2023/06/05 02:43:24;;;;;;;;;;;;;;;23.22;61.46;98641.66;2086269;28;20324;-56
2023/06/05 02:44:25;;;;;;;;;;;;;;;23.21;61.37;98630.03;2087198;28;19978;-53
2023/06/05 02:45:27;;;;;;;;;;;;;;;23.20;61.53;98639.16;2082467;28;20025;-54
2023/06/05 02:46:27;;;;;;;;;;;;;;;23.20;61.51;98640.00;2081286;28;20031;-53
2023/06/05 02:47:29;;;;;;;;;;;;;;;23.19;61.32;98635.66;2081712;28;19928;-55
2023/06/05 02:48:29;;;;;;;;;;;;;;;23.19;61.32;98632.13;2081949;28;19924;-52
2023/06/05 02:49:32;;;;;;;;;;;;;;;23.20;61.31;98639.16;2088225;28;19924;-54
2023/06/05 02:50:33;;;;;;;;;;;;;;;23.20;61.31;98636.47;2077975;28;20571;-56
2023/06/05 02:51:34;;;;;;;;;;;;;;;23.19;61.35;98635.66;2084435;28;19999;-55
2023/06/05 02:52:35;;;;;;;;;;;;;;;23.20;61.43;98633.75;2086692;28;19986;-55
2023/06/05 02:53:36;;;;;;;;;;;;;;;23.20;61.41;98633.75;2086993;28;19920;-55
2023/06/05 02:54:37;;;;;;;;;;;;;;;23.17;61.35;98629.63;2088368;28;19920;-53
2023/06/05 02:55:42;;;;;;;;;;;;;;;23.19;61.38;98634.84;2083889;28;19971;-53
2023/06/05 02:56:43;;;;;;;;;;;;;;;23.20;61.29;98633.75;2087154;28;20427;-54
2023/06/05 02:57:48;;;;;;;;;;;;;;;23.19;61.37;98634.84;2082627;28;19928;-54
2023/06/05 02:58:49;;;;;;;;;;;;;;;23.19;61.18;98626.72;2082982;28;19928;-55
2023/06/05 02:59:50;;;;;;;;;;;;;;;23.19;61.33;98627.53;2086125;28;19991;-55
2023/06/05 03:00:51;;;;;;;;;;;;;;;23.20;61.49;98628.34;2082689;28;20833;-54
2023/06/05 03:01:53;;;;;;;;;;;;;;;23.18;61.37;98631.31;2085545;28;19924;-53
2023/06/05 03:02:55;;;;;;;;;;;;;;;23.19;61.39;98632.13;2079464;28;19980;-55
2023/06/05 03:03:57;;;;;;;;;;;;;;;23.19;61.40;98626.72;2082977;28;19999;-55
2023/06/05 03:04:57;;;;;;;;;;;;;;;23.19;61.38;98626.72;2078769;28;20875;-54
2023/06/05 03:06:03;;;;;;;;;;;;;;;23.18;61.38;98636.72;2081523;28;20011;-54
2023/06/05 03:07:04;;;;;;;;;;;;;;;23.18;61.30;98630.50;2087847;28;19936;-56
2023/06/05 03:08:06;;;;;;;;;;;;;;;23.18;61.13;98633.19;2081782;28;20029;-55
2023/06/05 03:09:07;;;;;;;;;;;;;;;23.18;61.27;98639.41;2083583;28;20409;-56
2023/06/05 03:10:09;;;;;;;;;;;;;;;23.18;61.32;98633.19;2086431;28;19924;-52
2023/06/05 03:11:11;;;;;;;;;;;;;;;23.18;61.34;98627.78;2086215;28;20017;-54
2023/06/05 03:12:13;;;;;;;;;;;;;;;23.17;61.41;98628.81;2088101;28;19924;-54
2023/06/05 03:13:13;;;;;;;;;;;;;;;23.17;61.54;98623.41;2089958;28;19928;-54
2023/06/05 03:14:14;;;;;;;;;;;;;;;23.17;61.26;98624.22;2084968;28;20734;-54
2023/06/05 03:15:17;;;;;;;;;;;;;;;23.18;61.45;98627.78;2087509;28;19981;-56
2023/06/05 03:16:19;;;;;;;;;;;;;;;23.17;61.33;98628.81;2082443;28;19924;-56
2023/06/05 03:17:20;;;;;;;;;;;;;;;23.19;61.20;98632.13;2087165;28;19928;-54
2023/06/05 03:18:22;;;;;;;;;;;;;;;23.17;61.37;98628.81;2086067;28;19931;-55
2023/06/05 03:19:22;;;;;;;;;;;;;;;23.16;61.34;98627.19;2085226;28;19928;-55
2023/06/05 03:20:25;;;;;;;;;;;;;;;23.17;61.34;98634.22;2085994;28;19921;-56
2023/06/05 03:21:25;;;;;;;;;;;;;;;23.18;61.37;98630.50;2082450;28;19920;-56
2023/06/05 03:22:27;;;;;;;;;;;;;;;23.16;61.40;98628.00;2087056;28;19928;-54
2023/06/05 03:23:28;;;;;;;;;;;;;;;23.17;61.34;98629.63;2085479;28;19946;-53
2023/06/05 03:24:29;;;;;;;;;;;;;;;23.16;61.49;98624.47;2084410;28;19974;-53
2023/06/05 03:25:30;;;;;;;;;;;;;;;23.17;61.44;98628.81;2085718;28;19982;-55
2023/06/05 03:26:33;;;;;;;;;;;;;;;23.15;61.41;98631.78;2084562;28;19935;-54
2023/06/05 03:27:34;;;;;;;;;;;;;;;23.15;61.42;98628.22;2086007;28;19971;-54
2023/06/05 03:28:37;;;;;;;;;;;;;;;23.16;61.16;98627.19;2085573;28;19920;-55
2023/06/05 03:29:37;;;;;;;;;;;;;;;23.16;61.19;98629.88;2086200;28;19928;-55
2023/06/05 03:30:39;;;;;;;;;;;;;;;23.15;61.38;98628.22;2081319;28;20532;-55
2023/06/05 03:31:39;;;;;;;;;;;;;;;23.15;61.42;98625.50;2082345;28;20361;-56
2023/06/05 03:32:41;;;;;;;;;;;;;;;23.16;61.53;98629.88;2086226;28;19921;-54
2023/06/05 03:33:41;;;;;;;;;;;;;;;23.15;61.36;98623.66;2084599;28;20022;-54
2023/06/05 03:34:48;;;;;;;;;;;;;;;23.15;61.49;98631.78;2084468;28;19920;-55
2023/06/05 03:35:49;;;;;;;;;;;;;;;23.15;61.40;98630.94;2086121;28;19929;-55
2023/06/05 03:36:51;;;;;;;;;;;;;;;23.15;61.49;98625.50;2081192;28;19928;-57
2023/06/05 03:37:51;;;;;;;;;;;;;;;23.16;61.36;98632.59;2078480;28;20771;-55
2023/06/05 03:38:53;;;;;;;;;;;;;;;23.15;61.46;98626.38;2083668;28;19932;-58
2023/06/05 03:39:53;;;;;;;;;;;;;;;23.14;61.56;98624.69;2086804;28;19920;-57
2023/06/05 03:40:55;;;;;;;;;;;;;;;23.15;61.28;98626.38;2085889;28;19924;-55
2023/06/05 03:41:56;;;;;;;;;;;;;;;23.14;61.46;98624.69;2085951;28;19920;-54
2023/06/05 03:42:58;;;;;;;;;;;;;;;23.12;61.43;98616.00;2085172;28;20042;-55
2023/06/05 03:43:59;;;;;;;;;;;;;;;23.13;61.36;98625.78;2083767;28;20440;-52
2023/06/05 03:45:00;;;;;;;;;;;;;;;23.14;61.32;98622.00;2081596;28;19928;-55
2023/06/05 03:46:00;;;;;;;;;;;;;;;23.15;61.56;98626.38;2081178;28;19920;-52
2023/06/05 03:47:02;;;;;;;;;;;;;;;23.14;61.44;98619.28;2084729;28;19924;-55
2023/06/05 03:48:03;;;;;;;;;;;;;;;23.14;61.52;98618.47;2085759;28;20035;-54
2023/06/05 03:49:08;;;;;;;;;;;;;;;23.14;61.46;98618.47;2088735;28;20405;-54
2023/06/05 03:50:09;;;;;;;;;;;;;;;23.12;61.37;98618.72;2088265;28;19973;-55
2023/06/05 03:51:11;;;;;;;;;;;;;;;23.13;61.32;98614.13;2085280;28;19932;-55
2023/06/05 03:52:14;;;;;;;;;;;;;;;23.13;61.26;98619.53;2085056;28;19920;-55
2023/06/05 03:53:15;;;;;;;;;;;;;;;23.13;61.46;98617.66;2084817;28;19964;-52
2023/06/05 03:54:16;;;;;;;;;;;;;;;23.14;61.41;98615.75;2085313;28;19929;-53
2023/06/05 03:55:18;;;;;;;;;;;;;;;23.12;61.47;98617.88;2080541;28;20551;-55
2023/06/05 03:56:19;;;;;;;;;;;;;;;23.12;61.39;98620.56;2079858;28;21408;-56
2023/06/05 03:57:22;;;;;;;;;;;;;;;23.13;61.35;98620.34;2085443;28;19994;-54
2023/06/05 03:58:23;;;;;;;;;;;;;;;23.11;61.41;98621.66;2084574;28;19934;-55
2023/06/05 03:59:25;;;;;;;;;;;;;;;23.12;61.46;98620.56;2086374;28;19943;-56
2023/06/05 04:00:26;;;;;;;;;;;;;;;23.12;61.33;98615.16;2086890;28;19924;-56
2023/06/05 04:01:27;;;;;;;;;;;;;;;23.10;61.41;98620.00;2088446;28;19927;-55
2023/06/05 04:02:28;;;;;;;;;;;;;;;23.11;61.55;98624.34;2087399;28;19956;-55
2023/06/05 04:03:29;;;;;;;;;;;;;;;23.11;61.53;98618.94;2087427;28;19931;-54
2023/06/05 04:04:30;;;;;;;;;;;;;;;23.12;61.35;98621.44;2087300;28;19963;-55
2023/06/05 04:05:32;;;;;;;;;;;;;;;23.12;61.52;98617.88;2091145;28;20586;-54
2023/06/05 04:06:33;;;;;;;;;;;;;;;23.11;61.41;98614.34;2087866;28;19924;-55
2023/06/05 04:07:34;;;;;;;;;;;;;;;23.09;61.50;98621.03;2087125;28;19936;-54
2023/06/05 04:08:35;;;;;;;;;;;;;;;23.10;61.29;98614.59;2086729;28;19928;-54
2023/06/05 04:09:36;;;;;;;;;;;;;;;23.10;61.40;98615.41;2082606;28;20289;-54
2023/06/05 04:10:37;;;;;;;;;;;;;;;23.10;61.63;98618.13;2085120;28;20152;-53
2023/06/05 04:11:41;;;;;;;;;;;;;;;23.11;61.47;98618.94;2084262;28;20380;-55
2023/06/05 04:12:42;;;;;;;;;;;;;;;23.10;61.31;98617.31;2082924;28;19947;-52
2023/06/05 04:13:44;;;;;;;;;;;;;;;23.10;61.49;98622.72;2081815;28;19928;-54
2023/06/05 04:14:45;;;;;;;;;;;;;;;23.10;61.39;98620.81;2087021;28;19955;-54
2023/06/05 04:15:46;;;;;;;;;;;;;;;23.09;61.51;98621.03;2088512;28;19932;-54
2023/06/05 04:16:48;;;;;;;;;;;;;;;23.10;61.33;98628.13;2084407;28;19932;-53
2023/06/05 04:17:48;;;;;;;;;;;;;;;23.10;61.37;98615.41;2086113;28;20039;-54
2023/06/05 04:18:50;;;;;;;;;;;;;;;23.07;61.65;98624.00;2082267;28;20480;-55
2023/06/05 04:19:51;;;;;;;;;;;;;;;23.09;61.63;98624.56;2082476;28;19928;-53
2023/06/05 04:20:52;;;;;;;;;;;;;;;23.10;61.52;98626.22;2080140;28;20485;-53
2023/06/05 04:21:53;;;;;;;;;;;;;;;23.09;61.39;98618.34;2086516;28;19974;-55
2023/06/05 04:22:53;;;;;;;;;;;;;;;23.08;61.38;98617.53;2083013;28;19929;-55
2023/06/05 04:23:55;;;;;;;;;;;;;;;23.07;61.54;98618.59;2080284;28;20122;-54
2023/06/05 04:24:56;;;;;;;;;;;;;;;23.08;61.26;98617.53;2088818;28;19981;-54
2023/06/05 04:25:57;;;;;;;;;;;;;;;23.08;61.57;98622.13;2085425;28;20398;-54
2023/06/05 04:27:00;;;;;;;;;;;;;;;23.08;61.60;98622.13;2086640;28;19925;-54
2023/06/05 04:28:03;;;;;;;;;;;;;;;23.09;61.50;98616.44;2084099;28;20409;-56
2023/06/05 04:29:09;;;;;;;;;;;;;;;23.08;61.43;98622.13;2085534;28;20278;-53
2023/06/05 04:30:12;;;;;;;;;;;;;;;23.07;61.60;98617.78;2082297;28;19924;-55
2023/06/05 04:31:12;;;;;;;;;;;;;;;23.08;61.48;98624.81;2088618;28;19964;-52
2023/06/05 04:32:16;;;;;;;;;;;;;;;23.07;61.45;98621.28;2083400;28;19921;-54
2023/06/05 04:33:16;;;;;;;;;;;;;;;23.08;61.39;98622.13;2087354;28;19928;-55
2023/06/05 04:34:19;;;;;;;;;;;;;;;23.07;61.45;98621.28;2087857;28;20665;-54
2023/06/05 04:35:20;;;;;;;;;;;;;;;23.07;61.57;98624.00;2083489;28;19953;-54
2023/06/05 04:36:21;;;;;;;;;;;;;;;23.07;61.37;98624.00;2088203;28;20469;-54
2023/06/05 04:37:22;;;;;;;;;;;;;;;23.08;61.62;98619.41;2082580;28;20295;-53
2023/06/05 04:38:23;;;;;;;;;;;;;;;23.07;61.60;98624.00;2089754;28;20006;-56
2023/06/05 04:39:24;;;;;;;;;;;;;;;23.08;61.51;98630.22;2088696;28;20493;-56
2023/06/05 04:40:25;;;;;;;;;;;;;;;23.07;61.43;98623.19;2087709;28;19928;-55
2023/06/05 04:41:28;;;;;;;;;;;;;;;23.08;61.39;98630.22;2089972;28;19938;-55
2023/06/05 04:42:30;;;;;;;;;;;;;;;23.08;61.57;98635.63;2086606;28;19921;-55
2023/06/05 04:43:33;;;;;;;;;;;;;;;23.07;61.52;98628.59;2085149;28;19921;-53
2023/06/05 04:44:34;;;;;;;;;;;;;;;23.08;61.36;98630.22;2089310;28;20955;-55
2023/06/05 04:45:35;;;;;;;;;;;;;;;23.07;61.53;98629.41;2088738;28;19928;-55
2023/06/05 04:46:38;;;;;;;;;;;;;;;23.07;61.34;98626.72;2090201;28;19924;-56
2023/06/05 04:47:40;;;;;;;;;;;;;;;23.07;61.56;98628.59;2089353;28;19993;-54
2023/06/05 04:48:40;;;;;;;;;;;;;;;23.07;61.43;98631.31;2087998;28;20435;-53
2023/06/05 04:49:42;;;;;;;;;;;;;;;23.07;61.51;98628.59;2090435;28;19928;-53
2023/06/05 04:52:02;;;;;;;;;;;;;;;23.06;61.51;98627.75;2085385;28;19920;-55
2023/06/05 04:53:03;;;;;;;;;;;;;;;23.08;61.40;98632.94;2088191;28;19921;-55
2023/06/05 04:54:05;;;;;;;;;;;;;;;23.05;61.52;98631.53;2086715;28;19929;-55
2023/06/05 04:55:06;;;;;;;;;;;;;;;23.04;61.72;98623.63;2089033;28;19967;-56
2023/06/05 04:56:07;;;;;;;;;;;;;;;23.03;61.65;98630.09;2090879;28;20441;-56
2023/06/05 04:57:10;;;;;;;;;;;;;;;23.02;61.72;98629.28;2087362;28;19920;-56
2023/06/05 04:58:11;;;;;;;;;;;;;;;23.03;61.52;98628.22;2086249;28;19982;-54
2023/06/05 04:59:14;;;;;;;;;;;;;;;23.04;61.56;98629.03;2085303;28;19978;-55
2023/06/05 05:00:16;;;;;;;;;;;;;;;23.04;61.53;98626.31;2088691;28;19935;-56
2023/06/05 05:01:16;;;;;;;;;;;;;;;23.04;61.57;98629.03;2089955;28;20446;-54
2023/06/05 05:02:18;;;;;;;;;;;;;;;23.04;61.61;98623.63;2090067;28;19920;-54
2023/06/05 05:03:18;;;;;;;;;;;;;;;23.04;61.55;98623.63;2090039;28;19928;-56
2023/06/05 05:04:20;;;;;;;;;;;;;;;23.05;61.52;98623.41;2089130;28;20274;-55
2023/06/05 05:05:20;;;;;;;;;;;;;;;23.05;61.49;98631.53;2089132;28;20426;-53
2023/06/05 05:06:22;;;;;;;;;;;;;;;23.04;61.51;98626.31;2089675;28;19920;-55
2023/06/05 05:07:26;;;;;;;;;;;;;;;23.04;61.38;98629.03;2088871;28;19924;-56
2023/06/05 05:08:28;;;;;;;;;;;;;;;23.03;61.57;98632.81;2082886;28;19931;-54
2023/06/05 05:09:29;;;;;;;;;;;;;;;23.03;61.50;98628.22;2083263;28;19931;-54
2023/06/05 05:10:30;;;;;;;;;;;;;;;23.02;61.53;98631.16;2082576;28;19932;-55
2023/06/05 05:11:31;;;;;;;;;;;;;;;23.02;61.47;98623.06;2083477;28;19929;-56
2023/06/05 05:12:32;;;;;;;;;;;;;;;23.03;61.44;98628.22;2081414;28;19998;-54
2023/06/05 05:13:33;;;;;;;;;;;;;;;23.04;61.45;98629.03;2083058;28;19967;-55
2023/06/05 05:14:36;;;;;;;;;;;;;;;23.04;61.43;98634.44;2085220;28;19963;-56
2023/06/05 05:15:38;;;;;;;;;;;;;;;23.04;61.38;98629.03;2089623;28;19993;-53
2023/06/05 05:16:39;;;;;;;;;;;;;;;23.02;61.55;98631.16;2089625;28;20744;-55
2023/06/05 05:17:40;;;;;;;;;;;;;;;23.03;61.42;98630.09;2089844;28;19970;-56
2023/06/05 05:18:43;;;;;;;;;;;;;;;23.05;61.57;98634.22;2088549;28;20357;-55
2023/06/05 05:19:44;;;;;;;;;;;;;;;23.03;61.34;98632.81;2090077;28;19935;-53
2023/06/05 05:20:46;;;;;;;;;;;;;;;23.02;61.69;98642.81;2090007;28;20152;-55
2023/06/05 05:21:47;;;;;;;;;;;;;;;23.01;61.70;98635.72;2085515;28;19928;-55
2023/06/05 05:22:48;;;;;;;;;;;;;;;23.02;61.46;98636.56;2088030;28;19925;-55